createdAt,value
2022-08-07T00:00:27.723Z,3.60
2022-08-07T00:02:50.961Z,5.90
2022-08-07T00:05:06.949Z,13.10
2022-08-07T00:07:20.154Z,8.80
2022-08-07T00:09:35.831Z,17.60
2022-08-07T00:11:55.494Z,7.20
2022-08-07T00:14:11.991Z,18.70
2022-08-07T00:16:28.157Z,5.80
2022-08-07T00:18:41.457Z,2.30
2022-08-07T00:20:56.851Z,5.40
2022-08-07T00:23:11.367Z,21.90
2022-08-07T00:25:26.159Z,25.50
2022-08-07T00:27:52.913Z,7.40
2022-08-07T00:30:07.304Z,15.40
2022-08-07T00:32:39.891Z,33.80
2022-08-07T00:34:52.923Z,18.10
2022-08-07T00:37:06.344Z,25.10
2022-08-07T00:39:21.565Z,18.70
2022-08-07T00:41:45.345Z,22.40
2022-08-07T00:44:07.162Z,35.30
2022-08-07T00:46:21.196Z,43.80
2022-08-07T00:48:35.703Z,16.60
2022-08-07T00:50:55.429Z,18.40
2022-08-07T00:53:09.276Z,8.40
2022-08-07T00:55:25.475Z,3.20
2022-08-07T00:57:57.890Z,2.40
2022-08-07T01:00:12.785Z,5.30
2022-08-07T01:02:28.584Z,13.80
2022-08-07T01:04:43.933Z,3.10
2022-08-07T01:06:57.819Z,5.30
2022-08-07T01:09:11.216Z,1.80
2022-08-07T01:12:09.225Z,3.60
2022-08-07T01:14:17.512Z,2.10
2022-08-07T01:16:34.793Z,5.00
2022-08-07T01:18:49.351Z,3.20
2022-08-07T01:21:24.392Z,5.00
2022-08-07T01:23:46.453Z,23.70
2022-08-07T01:26:00.905Z,19.10
2022-08-07T01:28:14.542Z,5.40
2022-08-07T01:30:30.376Z,5.50
2022-08-07T01:32:43.639Z,7.20
2022-08-07T01:34:57.362Z,3.20
2022-08-07T01:37:12.516Z,5.20
2022-08-07T01:39:41.061Z,2.70
2022-08-07T01:44:40.897Z,4.30
2022-08-07T01:46:55.733Z,2.00
2022-08-07T01:49:11.283Z,5.40
2022-08-07T01:52:02.206Z,3.20
2022-08-07T01:54:19.218Z,3.40
2022-08-07T01:56:51.913Z,2.60
2022-08-07T01:59:15.692Z,6.20
2022-08-07T02:02:02.135Z,4.80
2022-08-07T02:04:15.064Z,3.10
2022-08-07T02:06:36.022Z,3.80
2022-08-07T02:08:54.196Z,5.40
2022-08-07T02:11:57.638Z,3.40
2022-08-07T02:13:58.117Z,3.90
2022-08-07T02:16:15.220Z,3.60
2022-08-07T02:18:30.676Z,5.90
2022-08-07T02:20:48.723Z,3.70
2022-08-07T02:23:11.611Z,4.70
2022-08-07T02:26:10.589Z,4.60
2022-08-07T02:28:02.356Z,5.10
2022-08-07T02:30:21.201Z,3.60
2022-08-07T02:32:39.365Z,3.40
2022-08-07T02:34:55.655Z,4.70
2022-08-07T02:37:13.428Z,7.40
2022-08-07T02:39:43.720Z,5.30
2022-08-07T02:42:10.117Z,5.90
2022-08-07T02:44:34.624Z,4.80
2022-08-07T02:46:53.912Z,4.90
2022-08-07T02:49:08.000Z,6.00
2022-08-07T02:51:42.144Z,3.00
2022-08-07T02:53:59.543Z,5.90
2022-08-07T02:56:20.944Z,8.20
2022-08-07T02:58:35.540Z,8.40
2022-08-07T03:00:52.844Z,6.60
2022-08-07T03:03:08.669Z,5.40
2022-08-07T03:05:35.985Z,6.60
2022-08-07T03:08:05.422Z,7.20
2022-08-07T03:10:23.459Z,4.00
2022-08-07T03:12:38.816Z,6.80
2022-08-07T03:14:57.474Z,4.70
2022-08-07T03:17:16.249Z,7.50
2022-08-07T03:19:36.887Z,4.40
2022-08-07T03:21:53.911Z,3.10
2022-08-07T03:24:20.820Z,7.00
2022-08-07T03:29:14.715Z,5.00
2022-08-07T03:31:43.288Z,5.30
2022-08-07T03:34:04.629Z,7.90
2022-08-07T03:36:21.628Z,6.20
2022-08-07T03:38:41.153Z,7.50
2022-08-07T03:40:57.250Z,4.60
2022-08-07T03:43:14.453Z,4.40
2022-08-07T03:45:39.753Z,2.60
2022-08-07T03:47:59.816Z,4.00
2022-08-07T03:50:13.581Z,8.50
2022-08-07T03:52:29.007Z,4.30
2022-08-07T03:54:54.915Z,6.00
2022-08-07T03:57:11.459Z,8.20
2022-08-07T03:59:46.618Z,6.90
2022-08-07T04:02:17.051Z,6.20
2022-08-07T04:04:32.850Z,6.70
2022-08-07T04:06:50.918Z,5.10
2022-08-07T04:09:08.418Z,8.20
2022-08-07T04:12:26.885Z,4.20
2022-08-07T04:14:33.269Z,7.50
2022-08-07T04:16:37.750Z,8.00
2022-08-07T04:19:01.290Z,5.00
2022-08-07T04:21:17.751Z,5.40
2022-08-07T04:23:43.947Z,4.80
2022-08-07T04:26:04.613Z,8.70
2022-08-07T04:28:18.468Z,6.60
2022-08-07T04:30:43.492Z,6.90
2022-08-07T04:33:15.640Z,6.50
2022-08-07T04:35:35.339Z,12.10
2022-08-07T04:38:06.891Z,10.90
2022-08-07T04:40:21.435Z,3.00
2022-08-07T04:42:43.662Z,8.80
2022-08-07T04:45:07.813Z,7.10
2022-08-07T04:48:00.544Z,7.10
2022-08-07T04:50:11.494Z,4.60
2022-08-07T04:52:34.430Z,7.30
2022-08-07T04:54:55.904Z,4.00
2022-08-07T04:58:09.995Z,5.30
2022-08-07T05:00:10.983Z,6.10
2022-08-07T05:02:31.749Z,3.80
2022-08-07T05:04:50.579Z,10.50
2022-08-07T05:07:19.759Z,12.50
2022-08-07T05:09:45.538Z,31.10
2022-08-07T05:12:04.717Z,20.20
2022-08-07T05:14:53.901Z,8.20
2022-08-07T05:17:01.121Z,10.80
2022-08-07T05:19:25.679Z,4.50
2022-08-07T05:22:00.247Z,6.40
2022-08-07T05:24:20.499Z,7.50
2022-08-07T05:26:40.197Z,2.90
2022-08-07T05:28:56.365Z,6.40
2022-08-07T05:31:14.521Z,9.90
2022-08-07T05:33:31.767Z,5.50
2022-08-07T05:35:50.692Z,7.40
2022-08-07T05:38:08.716Z,9.70
2022-08-07T05:40:24.298Z,10.40
2022-08-07T05:42:42.280Z,19.00
2022-08-07T05:45:26.024Z,8.40
2022-08-07T05:48:01.676Z,6.20
2022-08-07T05:50:24.665Z,6.00
2022-08-07T05:52:38.244Z,6.30
2022-08-07T05:54:55.524Z,4.40
2022-08-07T05:57:11.723Z,81.60
2022-08-07T05:59:27.439Z,117.90
2022-08-07T06:01:48.622Z,108.30
2022-08-07T06:04:03.865Z,125.30
2022-08-07T06:06:22.853Z,111.80
2022-08-07T06:08:44.581Z,100.30
2022-08-07T06:11:00.331Z,119.40
2022-08-07T06:13:17.321Z,103.80
2022-08-07T06:15:42.202Z,100.40
2022-08-07T06:17:59.879Z,69.50
2022-08-07T06:20:25.669Z,60.90
2022-08-07T06:23:02.153Z,53.70
2022-08-07T06:25:26.445Z,46.10
2022-08-07T06:28:00.031Z,37.50
2022-08-07T06:30:32.335Z,33.60
2022-08-07T06:32:52.024Z,35.70
2022-08-07T06:35:17.637Z,26.20
2022-08-07T06:37:44.443Z,67.90
2022-08-07T06:40:17.187Z,101.10
2022-08-07T06:42:38.474Z,70.80
2022-08-07T06:45:01.107Z,86.20
2022-08-07T06:47:15.501Z,87.10
2022-08-07T06:49:29.414Z,85.20
2022-08-07T06:51:49.610Z,74.80
2022-08-07T06:55:28.954Z,37.10
2022-08-07T06:56:49.360Z,31.50
2022-08-07T07:00:13.790Z,40.70
2022-08-07T07:01:48.815Z,39.00
2022-08-07T07:04:27.929Z,46.30
2022-08-07T07:06:39.421Z,30.70
2022-08-07T07:09:30.907Z,25.30
2022-08-07T07:12:08.849Z,51.00
2022-08-07T07:14:22.399Z,53.90
2022-08-07T07:16:50.022Z,43.00
2022-08-07T07:19:54.458Z,39.10
2022-08-07T07:22:04.800Z,47.10
2022-08-07T07:24:19.155Z,48.50
2022-08-07T07:26:37.804Z,54.70
2022-08-07T07:29:40.688Z,59.40
2022-08-07T07:31:44.130Z,32.80
2022-08-07T07:34:03.099Z,37.00
2022-08-07T07:36:18.005Z,24.90
2022-08-07T07:38:32.370Z,14.80
2022-08-07T07:40:48.651Z,19.90
2022-08-07T07:43:15.245Z,14.20
2022-08-07T07:46:36.935Z,9.10
2022-08-07T07:48:08.770Z,12.20
2022-08-07T07:50:33.019Z,14.30
2022-08-07T07:52:52.421Z,13.30
2022-08-07T07:55:06.773Z,9.80
2022-08-07T07:57:50.410Z,18.20
2022-08-07T07:59:58.233Z,69.40
2022-08-07T08:02:22.660Z,85.70
2022-08-07T08:04:50.445Z,73.00
2022-08-07T08:07:07.719Z,59.70
2022-08-07T08:09:23.246Z,41.70
2022-08-07T08:11:59.719Z,31.10
2022-08-07T08:14:10.131Z,35.30
2022-08-07T08:16:30.115Z,27.90
2022-08-07T08:18:45.125Z,19.70
2022-08-07T08:21:05.256Z,18.20
2022-08-07T08:23:38.726Z,32.80
2022-08-07T08:26:11.280Z,22.40
2022-08-07T08:28:38.496Z,16.40
2022-08-07T08:30:55.586Z,15.50
2022-08-07T08:33:16.239Z,16.30
2022-08-07T08:35:39.306Z,10.60
2022-08-07T08:38:04.658Z,6.50
2022-08-07T08:40:28.593Z,3.00
2022-08-07T08:42:46.783Z,7.30
2022-08-07T08:45:13.801Z,6.10
2022-08-07T08:47:47.390Z,4.30
2022-08-07T08:50:18.980Z,11.70
2022-08-07T08:52:54.965Z,21.60
2022-08-07T08:55:20.826Z,13.80
2022-08-07T08:57:55.712Z,7.80
2022-08-07T09:00:13.173Z,7.30
2022-08-07T09:02:41.905Z,4.90
2022-08-07T09:05:01.621Z,5.00
2022-08-07T09:07:23.218Z,1.70
2022-08-07T09:09:56.487Z,5.10
2022-08-07T09:12:30.955Z,1.90
2022-08-07T09:14:58.619Z,8.90
2022-08-07T09:17:25.825Z,3.40
2022-08-07T09:20:01.001Z,4.50
2022-08-07T09:24:33.474Z,5.50
2022-08-07T09:25:17.347Z,2.00
2022-08-07T09:27:59.425Z,3.50
2022-08-07T09:30:20.727Z,4.70
2022-08-07T09:32:57.329Z,2.60
2022-08-07T09:36:00.957Z,3.20
2022-08-07T09:37:55.405Z,2.20
2022-08-07T09:40:25.599Z,1.80
2022-08-07T09:42:50.440Z,4.00
2022-08-07T09:47:24.493Z,3.50
2022-08-07T09:48:02.447Z,1.80
2022-08-07T09:50:26.615Z,4.10
2022-08-07T09:52:51.759Z,2.80
2022-08-07T09:55:29.899Z,2.60
2022-08-07T09:58:14.577Z,3.80
2022-08-07T10:00:31.944Z,1.90
2022-08-07T10:04:04.975Z,3.60
2022-08-07T10:06:56.858Z,2.50
2022-08-07T10:09:42.755Z,2.10
2022-08-07T10:12:19.700Z,3.10
2022-08-07T10:14:58.779Z,1.40
2022-08-07T10:17:19.367Z,1.90
2022-08-07T10:19:56.326Z,4.10
2022-08-07T10:22:33.574Z,1.20
2022-08-07T10:25:02.700Z,1.20
2022-08-07T10:27:47.034Z,1.70
2022-08-07T10:30:16.578Z,1.70
2022-08-07T10:32:59.789Z,1.40
2022-08-07T10:35:25.953Z,2.70
2022-08-07T10:38:09.896Z,1.00
2022-08-07T10:40:30.107Z,3.90
2022-08-07T10:42:50.244Z,1.10
2022-08-07T10:45:13.249Z,1.70
2022-08-07T10:47:51.551Z,2.40
2022-08-07T10:50:15.246Z,2.40
2022-08-07T10:52:37.221Z,1.10
2022-08-07T10:55:01.502Z,1.80
2022-08-07T10:57:34.781Z,2.90
2022-08-07T11:00:08.894Z,2.00
2022-08-07T11:02:34.300Z,1.90
2022-08-07T11:05:10.768Z,1.70
2022-08-07T11:07:59.045Z,1.50
2022-08-07T11:10:10.093Z,2.70
2022-08-07T11:12:31.721Z,3.10
2022-08-07T11:14:59.728Z,1.20
2022-08-07T11:17:23.293Z,1.60
2022-08-07T11:19:59.362Z,2.20
2022-08-07T11:22:36.097Z,3.50
2022-08-07T11:25:03.311Z,3.50
2022-08-07T11:28:01.340Z,1.60
2022-08-07T11:30:18.851Z,1.40
2022-08-07T11:32:42.482Z,1.90
2022-08-07T11:35:00.726Z,36.80
2022-08-07T11:37:38.170Z,54.20
2022-08-07T11:40:03.910Z,117.90
2022-08-07T11:42:29.629Z,154.60
2022-08-07T11:44:57.631Z,125.90
2022-08-07T11:47:26.161Z,109.90
2022-08-07T11:50:31.072Z,42.30
2022-08-07T11:53:06.510Z,27.00
2022-08-07T11:56:24.956Z,14.40
2022-08-07T11:58:16.098Z,3.10
2022-08-07T12:00:38.018Z,2.80
2022-08-07T12:03:44.833Z,20.30
2022-08-07T12:06:01.179Z,20.50
2022-08-07T12:08:40.971Z,8.10
2022-08-07T12:11:08.482Z,21.30
2022-08-07T12:13:44.928Z,13.60
2022-08-07T12:16:09.136Z,13.10
2022-08-07T12:18:31.308Z,7.70
2022-08-07T12:20:51.781Z,5.30
2022-08-07T12:24:06.153Z,3.90
2022-08-07T12:26:23.574Z,6.40
2022-08-07T12:28:49.882Z,4.90
2022-08-07T12:31:17.242Z,2.60
2022-08-07T12:34:01.471Z,2.00
2022-08-07T12:36:12.642Z,1.90
2022-08-07T12:38:36.776Z,2.10
2022-08-07T12:40:57.089Z,2.40
2022-08-07T12:44:03.151Z,4.50
2022-08-07T12:45:56.338Z,1.20
2022-08-07T12:48:27.904Z,4.10
2022-08-07T12:50:57.071Z,1.90
2022-08-07T12:53:19.126Z,2.10
2022-08-07T12:55:41.351Z,1.60
2022-08-07T12:58:15.449Z,4.20
2022-08-07T13:00:49.698Z,4.20
2022-08-07T13:03:54.775Z,2.40
2022-08-07T13:06:27.261Z,4.00
2022-08-07T13:08:59.850Z,7.10
2022-08-07T13:11:28.861Z,4.40
2022-08-07T13:13:55.178Z,3.10
2022-08-07T13:16:19.719Z,4.40
2022-08-07T13:18:44.593Z,3.30
2022-08-07T13:21:10.795Z,3.30
2022-08-07T13:24:00.823Z,2.10
2022-08-07T13:26:15.918Z,2.60
2022-08-07T13:28:39.021Z,2.20
2022-08-07T13:31:01.680Z,2.50
2022-08-07T13:34:29.916Z,2.40
2022-08-07T13:36:09.188Z,4.00
2022-08-07T13:38:38.590Z,2.10
2022-08-07T13:41:01.121Z,3.50
2022-08-07T13:43:17.842Z,1.40
2022-08-07T13:46:11.182Z,1.90
2022-08-07T13:48:27.714Z,2.30
2022-08-07T13:51:02.044Z,3.90
2022-08-07T13:53:23.609Z,2.20
2022-08-07T13:55:39.079Z,1.90
2022-08-07T13:58:36.979Z,2.40
2022-08-07T14:00:56.225Z,6.60
2022-08-07T14:03:10.906Z,3.90
2022-08-07T14:05:37.567Z,8.50
2022-08-07T14:07:59.403Z,13.00
2022-08-07T14:10:24.754Z,5.90
2022-08-07T14:12:53.960Z,6.30
2022-08-07T14:15:12.685Z,4.40
2022-08-07T14:17:51.624Z,7.10
2022-08-07T14:20:40.550Z,5.30
2022-08-07T14:22:39.544Z,5.40
2022-08-07T14:24:57.974Z,4.10
2022-08-07T14:28:11.750Z,3.60
2022-08-07T14:30:05.217Z,6.30
2022-08-07T14:32:25.093Z,5.40
2022-08-07T14:34:45.612Z,2.90
2022-08-07T14:37:02.022Z,4.90
2022-08-07T14:40:15.804Z,6.90
2022-08-07T14:42:19.698Z,6.50
2022-08-07T14:44:30.148Z,5.00
2022-08-07T14:46:52.014Z,16.00
2022-08-07T14:49:58.015Z,50.00
2022-08-07T14:52:03.709Z,60.70
2022-08-07T14:54:33.063Z,68.70
2022-08-07T14:56:51.793Z,47.50
2022-08-07T15:01:51.297Z,32.00
2022-08-07T15:04:08.818Z,24.70
2022-08-07T15:06:29.469Z,58.70
2022-08-07T15:08:52.880Z,67.70
2022-08-07T15:11:14.947Z,88.40
2022-08-07T15:13:35.807Z,78.10
2022-08-07T15:15:54.019Z,101.90
2022-08-07T15:18:14.332Z,83.30
2022-08-07T15:20:55.013Z,83.30
2022-08-07T15:23:20.486Z,128.00
2022-08-07T15:25:42.839Z,73.40
2022-08-07T15:28:30.729Z,45.30
2022-08-07T15:31:04.819Z,43.50
2022-08-07T15:33:19.672Z,50.00
2022-08-07T15:38:30.057Z,110.70
2022-08-07T15:40:48.898Z,108.20
2022-08-07T15:43:53.214Z,137.40
2022-08-07T15:49:03.503Z,123.70
2022-08-07T15:51:18.188Z,127.10
2022-08-07T15:53:51.955Z,114.30
2022-08-07T15:56:11.026Z,94.80
2022-08-07T15:58:32.606Z,94.50
2022-08-07T16:00:46.370Z,64.20
2022-08-07T16:03:01.283Z,104.30
2022-08-07T16:05:23.124Z,55.50
2022-08-07T16:08:32.160Z,39.00
2022-08-07T16:10:26.146Z,37.60
2022-08-07T16:13:01.125Z,42.00
2022-08-07T16:15:56.398Z,37.90
2022-08-07T16:18:49.347Z,26.40
2022-08-07T16:22:03.146Z,18.00
2022-08-07T16:23:55.061Z,24.30
2022-08-07T16:26:30.965Z,34.30
2022-08-07T16:30:07.246Z,26.30
2022-08-07T16:31:50.114Z,31.60
2022-08-07T16:34:23.683Z,29.30
2022-08-07T16:37:02.784Z,32.00
2022-08-07T16:39:48.653Z,41.80
2022-08-07T16:42:36.709Z,22.00
2022-08-07T16:45:15.427Z,25.10
2022-08-07T16:48:13.644Z,34.00
2022-08-07T16:51:20.601Z,20.50
2022-08-07T16:53:55.638Z,23.20
2022-08-07T16:56:29.578Z,16.70
2022-08-07T16:59:10.565Z,26.30
2022-08-07T17:01:41.069Z,29.20
2022-08-07T17:04:07.737Z,17.20
2022-08-07T17:06:44.768Z,23.40
2022-08-07T17:09:09.646Z,18.90
2022-08-07T17:12:04.757Z,24.50
2022-08-07T17:14:18.513Z,26.30
2022-08-07T17:16:43.669Z,20.50
2022-08-07T17:19:16.480Z,20.00
2022-08-07T17:21:51.378Z,23.80
2022-08-07T17:24:23.645Z,23.70
2022-08-07T17:26:51.348Z,31.00
2022-08-07T17:30:12.658Z,27.40
2022-08-07T17:32:02.871Z,24.40
2022-08-07T17:34:34.700Z,18.50
2022-08-07T17:37:08.958Z,31.40
2022-08-07T17:39:57.769Z,25.50
2022-08-07T17:42:14.039Z,16.30
2022-08-07T17:44:43.920Z,23.20
2022-08-07T17:47:08.440Z,17.60
2022-08-07T17:49:30.066Z,25.00
2022-08-07T17:52:00.472Z,23.70
2022-08-07T17:54:40.212Z,39.10
2022-08-07T17:57:02.896Z,26.30
2022-08-07T17:59:37.707Z,41.90
2022-08-07T18:01:56.582Z,28.40
2022-08-07T18:04:30.894Z,28.90
2022-08-07T18:07:19.403Z,27.50
2022-08-07T18:10:04.287Z,23.40
2022-08-07T18:12:28.688Z,26.80
2022-08-07T18:14:49.348Z,31.30
2022-08-07T18:17:10.789Z,26.70
2022-08-07T18:21:11.507Z,20.30
2022-08-07T18:22:15.105Z,23.30
2022-08-07T18:24:35.616Z,38.70
2022-08-07T18:27:18.026Z,27.60
2022-08-07T18:30:05.929Z,25.60
2022-08-07T18:32:38.184Z,29.10
2022-08-07T18:35:15.811Z,54.20
2022-08-07T18:38:58.483Z,11.10
2022-08-07T18:40:42.325Z,12.70
2022-08-07T18:43:09.175Z,14.20
2022-08-07T18:45:43.375Z,19.80
2022-08-07T18:50:04.712Z,20.40
2022-08-07T18:51:08.293Z,20.70
2022-08-07T18:53:39.146Z,28.80
2022-08-07T18:56:06.182Z,35.50
2022-08-07T18:58:41.354Z,37.20
2022-08-07T19:01:04.832Z,32.80
2022-08-07T19:03:36.103Z,52.10
2022-08-07T19:06:02.349Z,32.60
2022-08-07T19:08:28.863Z,29.90
2022-08-07T19:11:35.632Z,36.10
2022-08-07T19:13:52.005Z,33.60
2022-08-07T19:16:43.769Z,31.50
2022-08-07T19:18:53.067Z,32.20
2022-08-07T19:21:47.509Z,36.70
2022-08-07T19:23:57.964Z,34.50
2022-08-07T19:26:22.074Z,38.00
2022-08-07T19:30:54.691Z,21.10
2022-08-07T19:31:42.774Z,33.60
2022-08-07T19:33:58.357Z,29.20
2022-08-07T19:36:15.021Z,29.90
2022-08-07T19:38:52.543Z,38.70
2022-08-07T19:41:07.070Z,38.30
2022-08-07T19:43:50.171Z,51.50
2022-08-07T19:46:09.642Z,30.10
2022-08-07T19:48:28.916Z,51.70
2022-08-07T19:50:48.715Z,33.50
2022-08-07T19:54:34.789Z,27.40
2022-08-07T19:55:57.615Z,26.40
2022-08-07T19:58:15.266Z,35.90
2022-08-07T20:00:34.519Z,26.40
2022-08-07T20:02:52.275Z,24.40
2022-08-07T20:05:11.196Z,23.80
2022-08-07T20:07:45.904Z,19.10
2022-08-07T20:10:36.282Z,24.60
2022-08-07T20:12:39.294Z,21.40
2022-08-07T20:14:58.499Z,22.60
2022-08-07T20:17:14.319Z,21.60
2022-08-07T20:19:49.440Z,33.40
2022-08-07T20:22:05.900Z,34.40
2022-08-07T20:24:28.461Z,40.10
2022-08-07T20:26:49.964Z,38.60
2022-08-07T20:29:10.649Z,28.30
2022-08-07T20:31:32.632Z,20.00
2022-08-07T20:33:50.990Z,33.50
2022-08-07T20:36:11.783Z,17.30
2022-08-07T20:38:32.128Z,31.80
2022-08-07T20:40:51.435Z,18.00
2022-08-07T20:43:14.715Z,30.50
2022-08-07T20:46:28.619Z,21.00
2022-08-07T20:48:09.780Z,21.60
2022-08-07T20:50:43.099Z,24.20
2022-08-07T20:52:56.170Z,22.00
2022-08-07T20:55:10.564Z,30.20
2022-08-07T20:57:28.166Z,34.00
2022-08-07T21:00:06.702Z,21.60
2022-08-07T21:02:34.207Z,22.20
2022-08-07T21:04:48.242Z,23.20
2022-08-07T21:07:14.545Z,29.20
2022-08-07T21:09:53.143Z,28.30
2022-08-07T21:12:15.133Z,22.10
2022-08-07T21:14:48.395Z,31.80
2022-08-07T21:18:03.164Z,22.80
2022-08-07T21:20:00.788Z,28.00
2022-08-07T21:22:19.256Z,19.90
2022-08-07T21:24:38.606Z,32.80
2022-08-07T21:26:59.626Z,20.10
2022-08-07T21:29:21.283Z,28.90
2022-08-07T21:32:10.823Z,22.30
2022-08-07T21:34:32.018Z,22.10
2022-08-07T21:36:53.945Z,22.80
2022-08-07T21:39:47.373Z,26.60
2022-08-07T21:42:01.460Z,26.30
2022-08-07T21:44:28.226Z,27.50
2022-08-07T21:46:50.845Z,21.60
2022-08-07T21:49:15.117Z,23.30
2022-08-07T21:51:51.062Z,20.30
2022-08-07T21:54:18.832Z,20.00
2022-08-07T21:56:47.089Z,19.70
2022-08-07T21:59:07.677Z,19.40
2022-08-07T22:02:11.266Z,22.70
2022-08-07T22:04:11.046Z,23.70
2022-08-07T22:06:31.226Z,26.40
2022-08-07T22:08:53.456Z,19.70
2022-08-07T22:11:09.526Z,25.40
2022-08-07T22:13:52.165Z,24.20
2022-08-07T22:16:42.993Z,26.80
2022-08-07T22:18:42.113Z,30.50
2022-08-07T22:20:58.138Z,33.10
2022-08-07T22:23:23.185Z,36.60
2022-08-07T22:25:45.123Z,42.40
2022-08-07T22:28:29.881Z,25.00
2022-08-07T22:30:52.992Z,23.90
2022-08-07T22:33:15.457Z,22.00
2022-08-07T22:35:39.565Z,16.50
2022-08-07T22:40:36.554Z,15.70
2022-08-07T22:42:53.188Z,20.20
2022-08-07T22:45:10.933Z,18.70
2022-08-07T22:48:02.193Z,18.90
2022-08-07T22:50:39.594Z,26.70
2022-08-07T22:54:05.620Z,14.70
2022-08-07T22:56:04.014Z,24.00
2022-08-07T22:59:05.213Z,16.20
2022-08-07T23:01:49.710Z,16.30
2022-08-07T23:04:18.981Z,18.20
2022-08-07T23:06:56.851Z,14.80
2022-08-07T23:10:05.147Z,11.60
2022-08-07T23:14:36.879Z,13.60
2022-08-07T23:17:15.524Z,9.10
2022-08-07T23:19:57.871Z,13.00
2022-08-07T23:22:26.255Z,17.10
2022-08-07T23:24:51.207Z,14.90
2022-08-07T23:27:33.512Z,15.00
2022-08-07T23:30:37.064Z,9.50
2022-08-07T23:34:35.551Z,9.00
2022-08-07T23:35:41.239Z,15.20
2022-08-07T23:38:37.017Z,20.30
2022-08-07T23:41:06.212Z,10.40
2022-08-07T23:43:56.688Z,13.00
2022-08-07T23:46:30.962Z,19.20
2022-08-07T23:49:15.401Z,12.80
2022-08-07T23:53:02.036Z,17.60
2022-08-07T23:54:11.681Z,12.00
2022-08-07T23:56:41.745Z,9.80
